Time,TemperatureF,DewpointF,PressureIn,WindDirection,WindDirectionDegrees,WindSpeedMPH,WindSpeedGustMPH,Humidity,HourlyPrecipIn,Conditions,Clouds,dailyrainin,SoftwareType,DateUTC
2013-06-09 00:02:00,61.0,42.0,30.08,SSE,164,4.0,5.0,49,0.00,,,-99.99,,2013-06-09 06:02:00,
2013-06-09 00:12:00,61.0,41.0,30.08,South,174,4.0,5.0,47,0.00,,,-99.99,,2013-06-09 06:12:00,
2013-06-09 00:22:00,61.0,41.0,30.08,SSE,153,3.0,6.0,46,0.00,,,-99.99,,2013-06-09 06:22:00,
2013-06-09 00:32:00,61.0,41.0,30.08,SSE,162,3.0,5.0,48,0.00,,,-99.99,,2013-06-09 06:32:00,
2013-06-09 00:42:00,61.0,40.0,30.08,SSE,167,4.0,5.0,48,0.00,,,-99.99,,2013-06-09 06:42:00,
2013-06-09 00:52:00,60.0,40.0,30.07,SSE,163,5.0,6.0,48,0.00,,,-99.99,,2013-06-09 06:52:00,
2013-06-09 01:02:00,60.0,40.0,30.07,SSE,167,4.0,6.0,48,0.00,,,-99.99,,2013-06-09 07:02:00,
2013-06-09 01:12:00,60.0,41.0,30.07,South,174,5.0,7.0,50,0.00,,,-99.99,,2013-06-09 07:12:00,
2013-06-09 01:22:00,59.0,41.0,30.07,South,178,5.0,6.0,51,0.00,,,-99.99,,2013-06-09 07:22:00,
2013-06-09 01:32:00,60.0,41.0,30.07,South,189,6.0,8.0,50,0.00,,,-99.99,,2013-06-09 07:32:00,
2013-06-09 01:42:00,60.0,41.0,30.07,South,191,3.0,7.0,49,0.00,,,-99.99,,2013-06-09 07:42:00,
2013-06-09 01:52:00,59.0,42.0,30.07,South,191,5.0,7.0,53,0.00,,,-99.99,,2013-06-09 07:52:00,
2013-06-09 02:02:00,59.0,43.0,30.07,SSW,193,4.0,9.0,55,0.00,,,-99.99,,2013-06-09 08:02:00,
2013-06-09 02:12:00,58.0,43.0,30.07,SSW,211,4.0,7.0,57,0.00,,,-99.99,,2013-06-09 08:12:00,
2013-06-09 02:22:00,57.0,43.0,30.06,ESE,114,2.0,5.0,60,0.00,,,-99.99,,2013-06-09 08:22:00,
2013-06-09 02:32:00,57.0,44.0,30.06,South,170,5.0,6.0,62,0.00,,,-99.99,,2013-06-09 08:32:00,
2013-06-09 02:42:00,57.0,44.0,30.06,SSE,159,3.0,7.0,63,0.00,,,-99.99,,2013-06-09 08:42:00,
2013-06-09 02:53:00,56.0,44.0,30.06,SSE,158,5.0,6.0,65,0.00,,,-99.99,,2013-06-09 08:53:00,
2013-06-09 03:02:00,56.0,44.0,30.06,SSE,162,2.0,6.0,63,0.00,,,-99.99,,2013-06-09 09:02:00,
2013-06-09 03:12:00,56.0,43.0,30.06,SSE,168,4.0,5.0,62,0.00,,,-99.99,,2013-06-09 09:12:00,
2013-06-09 03:22:00,56.0,43.0,30.06,SE,133,2.0,5.0,63,0.00,,,-99.99,,2013-06-09 09:22:00,
2013-06-09 03:33:00,55.0,43.0,30.06,SE,126,2.0,3.0,65,0.00,,,-99.99,,2013-06-09 09:33:00,
2013-06-09 03:43:00,54.0,44.0,30.06,NNE,30,1.0,3.0,68,0.00,,,-99.99,,2013-06-09 09:43:00,
2013-06-09 03:52:00,53.0,43.0,30.06,NNE,30,1.0,1.0,71,0.00,,,-99.99,,2013-06-09 09:52:00,
2013-06-09 04:03:00,53.0,43.0,30.06,East,90,2.0,3.0,71,0.00,,,-99.99,,2013-06-09 10:03:00,
2013-06-09 04:12:00,52.0,43.0,30.06,ESE,111,2.0,3.0,68,0.00,,,-99.99,,2013-06-09 10:12:00,
2013-06-09 04:23:00,52.0,43.0,30.06,SSW,193,1.0,2.0,73,0.00,,,-99.99,,2013-06-09 10:23:00,
2013-06-09 04:32:00,52.0,44.0,30.06,East,101,1.0,3.0,72,0.00,,,-99.99,,2013-06-09 10:32:00,
2013-06-09 04:43:00,52.0,43.0,30.06,SSE,168,3.0,3.0,72,0.00,,,-99.99,,2013-06-09 10:43:00,
2013-06-09 04:52:00,51.0,43.0,30.06,ESE,120,3.0,3.0,73,0.00,,,-99.99,,2013-06-09 10:52:00,
2013-06-09 05:02:00,51.0,43.0,30.06,South,170,2.0,3.0,76,0.00,,,-99.99,,2013-06-09 11:02:00,
2013-06-09 05:12:00,52.0,42.0,30.07,South,170,4.0,4.0,70,0.00,,,-99.99,,2013-06-09 11:12:00,
2013-06-09 05:22:00,52.0,42.0,30.07,South,178,4.0,5.0,69,0.00,,,-99.99,,2013-06-09 11:22:00,
2013-06-09 05:32:00,51.0,42.0,30.07,SSW,196,2.0,4.0,69,0.00,,,-99.99,,2013-06-09 11:32:00,
2013-06-09 05:42:00,51.0,43.0,30.07,SW,214,3.0,4.0,74,0.00,,,-99.99,,2013-06-09 11:42:00,
2013-06-09 05:52:00,50.0,43.0,30.07,SSW,207,1.0,3.0,76,0.00,,,-99.99,,2013-06-09 11:52:00,
2013-06-09 06:02:00,51.0,43.0,30.07,SW,233,2.0,2.0,74,0.00,,,-99.99,,2013-06-09 12:02:00,
2013-06-09 06:12:00,51.0,43.0,30.07,SW,220,3.0,3.0,74,0.00,,,-99.99,,2013-06-09 12:12:00,
2013-06-09 06:22:00,52.0,44.0,30.08,SW,226,3.0,5.0,74,0.00,,,-99.99,,2013-06-09 12:22:00,
2013-06-09 06:32:00,54.0,43.0,30.08,SSW,200,2.0,3.0,69,0.00,,,-99.99,,2013-06-09 12:32:00,
2013-06-09 06:42:00,54.0,46.0,30.08,SSW,203,2.0,3.0,73,0.00,,,-99.99,,2013-06-09 12:42:00,
2013-06-09 06:52:00,55.0,45.0,30.08,South,176,3.0,4.0,69,0.00,,,-99.99,,2013-06-09 12:52:00,
2013-06-09 07:02:00,55.0,45.0,30.08,SSW,198,3.0,5.0,67,0.00,,,-99.99,,2013-06-09 13:02:00,
2013-06-09 07:12:00,56.0,45.0,30.08,SSW,193,3.0,5.0,67,0.00,,,-99.99,,2013-06-09 13:12:00,
2013-06-09 07:22:00,56.0,44.0,30.08,SSW,194,2.0,4.0,63,0.00,,,-99.99,,2013-06-09 13:22:00,
2013-06-09 07:32:00,57.0,44.0,30.08,SW,219,3.0,5.0,63,0.00,,,-99.99,,2013-06-09 13:32:00,
2013-06-09 07:42:00,58.0,44.0,30.10,SSE,165,3.0,6.0,60,0.00,,,-99.99,,2013-06-09 13:42:00,
2013-06-09 07:52:00,59.0,44.0,30.10,SSE,164,5.0,5.0,57,0.00,,,-99.99,,2013-06-09 13:52:00,
2013-06-09 08:02:00,60.0,43.0,30.08,SSE,155,4.0,5.0,53,0.00,,,-99.99,,2013-06-09 14:02:00,
2013-06-09 08:12:00,62.0,43.0,30.08,SSE,168,4.0,4.0,50,0.00,,,-99.99,,2013-06-09 14:12:00,
2013-06-09 08:22:00,63.0,43.0,30.08,SW,214,2.0,4.0,48,0.00,,,-99.99,,2013-06-09 14:22:00,
2013-06-09 08:32:00,64.0,43.0,30.10,SW,236,1.0,5.0,47,0.00,,,-99.99,,2013-06-09 14:32:00,
2013-06-09 08:42:00,65.0,44.0,30.08,South,177,2.0,5.0,47,0.00,,,-99.99,,2013-06-09 14:42:00,
2013-06-09 08:52:00,65.0,43.0,30.10,SW,216,2.0,6.0,45,0.00,,,-99.99,,2013-06-09 14:52:00,
2013-06-09 09:02:00,65.0,42.0,30.10,SSE,167,3.0,8.0,43,0.00,,,-99.99,,2013-06-09 15:02:00,
2013-06-09 09:12:00,66.0,42.0,30.10,WSW,253,4.0,8.0,42,0.00,,,-99.99,,2013-06-09 15:12:00,
2013-06-09 09:22:00,67.0,41.0,30.10,WSW,244,3.0,6.0,41,0.00,,,-99.99,,2013-06-09 15:22:00,
2013-06-09 09:33:00,68.0,42.0,30.08,WSW,237,3.0,6.0,39,0.00,,,-99.99,,2013-06-09 15:33:00,
2013-06-09 09:43:00,69.0,42.0,30.08,SSW,210,6.0,7.0,39,0.00,,,-99.99,,2013-06-09 15:43:00,
2013-06-09 09:53:00,70.0,43.0,30.08,SW,220,5.0,7.0,39,0.00,,,-99.99,,2013-06-09 15:53:00,
2013-06-09 10:03:00,71.0,42.0,30.08,South,177,3.0,7.0,37,0.00,,,-99.99,,2013-06-09 16:03:00,
2013-06-09 10:13:00,72.0,41.0,30.07,South,181,5.0,8.0,33,0.00,,,-99.99,,2013-06-09 16:13:00,
2013-06-09 10:23:00,73.0,41.0,30.07,SSW,206,2.0,8.0,32,0.00,,,-99.99,,2013-06-09 16:23:00,
2013-06-09 10:33:00,75.0,42.0,30.06,East,100,6.0,8.0,31,0.00,,,-99.99,,2013-06-09 16:33:00,
2013-06-09 10:42:00,77.0,41.0,30.06,East,85,5.0,8.0,28,0.00,,,-99.99,,2013-06-09 16:42:00,
2013-06-09 10:53:00,78.0,41.0,30.06,ENE,70,7.0,8.0,27,0.00,,,-99.99,,2013-06-09 16:53:00,
2013-06-09 11:02:00,79.0,32.0,30.06,ENE,68,7.0,10.0,19,0.00,,,-99.99,,2013-06-09 17:02:00,
2013-06-09 11:12:00,78.0,32.0,30.06,East,100,4.0,15.0,18,0.00,,,-99.99,,2013-06-09 17:12:00,
2013-06-09 11:22:00,79.0,33.0,30.05,ENE,61,5.0,15.0,19,0.00,,,-99.99,,2013-06-09 17:22:00,
2013-06-09 11:32:00,80.0,31.0,30.05,ENE,70,5.0,13.0,17,0.00,,,-99.99,,2013-06-09 17:32:00,
2013-06-09 11:42:00,81.0,33.0,30.05,NE,52,8.0,11.0,18,0.00,,,-99.99,,2013-06-09 17:42:00,
2013-06-09 11:52:00,80.0,32.0,30.05,ESE,115,4.0,11.0,17,0.00,,,-99.99,,2013-06-09 17:52:00,
2013-06-09 12:02:00,81.0,32.0,30.05,ENE,76,5.0,11.0,17,0.00,,,-99.99,,2013-06-09 18:02:00,
2013-06-09 12:12:00,82.0,32.0,30.05,SE,131,4.0,9.0,16,0.00,,,-99.99,,2013-06-09 18:12:00,
2013-06-09 12:21:00,81.0,30.0,30.05,SSW,204,5.0,9.0,15,0.00,,,-99.99,,2013-06-09 18:21:00,
2013-06-09 12:32:00,82.0,29.0,30.05,ESE,112,8.0,11.0,15,0.00,,,-99.99,,2013-06-09 18:32:00,
2013-06-09 12:42:00,83.0,33.0,30.05,SE,126,4.0,10.0,17,0.00,,,-99.99,,2013-06-09 18:42:00,
2013-06-09 12:52:00,83.0,31.0,30.04,NW,319,2.0,7.0,15,0.00,,,-99.99,,2013-06-09 18:52:00,
2013-06-09 13:02:00,84.0,33.0,30.04,NNE,26,6.0,13.0,16,0.00,,,-99.99,,2013-06-09 19:02:00,
2013-06-09 13:12:00,82.0,31.0,30.04,ESE,102,3.0,13.0,15,0.00,,,-99.99,,2013-06-09 19:12:00,
2013-06-09 13:22:00,85.0,32.0,30.03,NNE,29,5.0,8.0,15,0.00,,,-99.99,,2013-06-09 19:22:00,
2013-06-09 13:32:00,84.0,31.0,30.03,South,183,3.0,10.0,15,0.00,,,-99.99,,2013-06-09 19:32:00,
2013-06-09 13:42:00,85.0,30.0,30.03,NE,39,3.0,7.0,14,0.00,,,-99.99,,2013-06-09 19:42:00,
2013-06-09 13:52:00,85.0,31.0,30.03,SE,128,4.0,7.0,14,0.00,,,-99.99,,2013-06-09 19:52:00,
2013-06-09 14:02:00,85.0,32.0,30.03,East,89,7.0,9.0,15,0.00,,,-99.99,,2013-06-09 20:02:00,
2013-06-09 14:12:00,85.0,33.0,30.01,ENE,74,6.0,11.0,15,0.00,,,-99.99,,2013-06-09 20:12:00,
2013-06-09 14:22:00,85.0,30.0,30.01,NE,34,9.0,9.0,14,0.00,,,-99.99,,2013-06-09 20:22:00,
2013-06-09 14:32:00,86.0,31.0,30.01,North,7,6.0,10.0,14,0.00,,,-99.99,,2013-06-09 20:32:00,
2013-06-09 14:42:00,86.0,32.0,30.00,East,84,8.0,14.0,14,0.00,,,-99.99,,2013-06-09 20:42:00,
2013-06-09 14:52:00,86.0,30.0,30.00,NE,49,3.0,11.0,13,0.00,,,-99.99,,2013-06-09 20:52:00,
2013-06-09 15:02:00,88.0,34.0,30.00,NE,44,5.0,7.0,15,0.00,,,-99.99,,2013-06-09 21:02:00,
2013-06-09 15:12:00,86.0,32.0,30.00,SSE,159,5.0,9.0,14,0.00,,,-99.99,,2013-06-09 21:12:00,
2013-06-09 15:22:00,87.0,32.0,29.99,NE,46,2.0,11.0,14,0.00,,,-99.99,,2013-06-09 21:22:00,
2013-06-09 15:33:00,88.0,33.0,29.99,ENE,59,10.0,11.0,14,0.00,,,-99.99,,2013-06-09 21:33:00,
2013-06-09 15:43:00,87.0,33.0,29.99,East,92,4.0,9.0,14,0.00,,,-99.99,,2013-06-09 21:43:00,
2013-06-09 15:53:00,88.0,32.0,29.98,NE,54,9.0,11.0,14,0.00,,,-99.99,,2013-06-09 21:53:00,
2013-06-09 16:02:00,88.0,32.0,29.98,East,88,9.0,11.0,13,0.00,,,-99.99,,2013-06-09 22:02:00,
2013-06-09 16:13:00,88.0,32.0,29.98,West,270,6.0,10.0,14,0.00,,,-99.99,,2013-06-09 22:13:00,
2013-06-09 16:23:00,89.0,32.0,29.97,ENE,60,7.0,11.0,13,0.00,,,-99.99,,2013-06-09 22:23:00,
2013-06-09 16:33:00,89.0,32.0,29.97,NE,42,6.0,11.0,13,0.00,,,-99.99,,2013-06-09 22:33:00,
2013-06-09 16:42:00,89.0,32.0,29.97,East,86,7.0,8.0,13,0.00,,,-99.99,,2013-06-09 22:42:00,
2013-06-09 16:52:00,90.0,32.0,29.96,East,98,4.0,8.0,13,0.00,,,-99.99,,2013-06-09 22:52:00,
2013-06-09 17:02:00,89.0,33.0,29.96,SSE,153,3.0,11.0,13,0.00,,,-99.99,,2013-06-09 23:02:00,
2013-06-09 17:12:00,90.0,33.0,29.96,South,179,6.0,9.0,13,0.00,,,-99.99,,2013-06-09 23:12:00,
2013-06-09 17:22:00,90.0,31.0,29.96,WNW,295,1.0,9.0,13,0.00,,,-99.99,,2013-06-09 23:22:00,
2013-06-09 17:32:00,90.0,32.0,29.96,SE,143,5.0,7.0,13,0.00,,,-99.99,,2013-06-09 23:32:00,
2013-06-09 17:42:00,90.0,31.0,29.96,SE,132,5.0,8.0,12,0.00,,,-99.99,,2013-06-09 23:42:00,
2013-06-09 17:52:00,91.0,32.0,29.96,East,94,4.0,5.0,13,0.00,,,-99.99,,2013-06-09 23:52:00,
2013-06-09 18:02:00,91.0,33.0,29.94,WNW,291,2.0,5.0,12,0.00,,,-99.99,,2013-06-10 00:02:00,
2013-06-09 18:12:00,90.0,32.0,29.94,ESE,107,4.0,5.0,13,0.00,,,-99.99,,2013-06-10 00:12:00,
2013-06-09 18:22:00,90.0,32.0,29.94,SE,125,2.0,7.0,13,0.00,,,-99.99,,2013-06-10 00:22:00,
2013-06-09 18:32:00,90.0,33.0,29.94,ENE,72,3.0,5.0,13,0.00,,,-99.99,,2013-06-10 00:32:00,
2013-06-09 18:42:00,89.0,34.0,29.94,NE,46,2.0,9.0,14,0.00,,,-99.99,,2013-06-10 00:42:00,
2013-06-09 18:52:00,89.0,34.0,29.96,SSE,162,4.0,9.0,14,0.00,,,-99.99,,2013-06-10 00:52:00,
2013-06-09 19:02:00,89.0,33.0,29.96,SE,138,4.0,6.0,13,0.00,,,-99.99,,2013-06-10 01:02:00,
2013-06-09 19:12:00,89.0,31.0,29.96,SE,124,3.0,5.0,13,0.00,,,-99.99,,2013-06-10 01:12:00,
2013-06-09 19:22:00,89.0,34.0,29.96,SE,127,2.0,6.0,14,0.00,,,-99.99,,2013-06-10 01:22:00,
2013-06-09 19:32:00,89.0,33.0,29.96,SSE,149,2.0,5.0,14,0.00,,,-99.99,,2013-06-10 01:32:00,
2013-06-09 19:42:00,88.0,33.0,29.96,East,94,2.0,5.0,14,0.00,,,-99.99,,2013-06-10 01:42:00,
2013-06-09 19:52:00,86.0,34.0,29.96,SE,145,5.0,9.0,15,0.00,,,-99.99,,2013-06-10 01:52:00,
2013-06-09 20:02:00,86.0,34.0,29.96,ESE,117,3.0,10.0,16,0.00,,,-99.99,,2013-06-10 02:02:00,
2013-06-09 20:12:00,84.0,36.0,29.97,ESE,121,6.0,9.0,18,0.00,,,-99.99,,2013-06-10 02:12:00,
2013-06-09 20:22:00,82.0,38.0,29.97,SE,139,2.0,7.0,21,0.00,,,-99.99,,2013-06-10 02:22:00,
2013-06-09 20:32:00,80.0,38.0,29.97,SE,129,3.0,5.0,21,0.00,,,-99.99,,2013-06-10 02:32:00,
2013-06-09 20:42:00,78.0,40.0,29.97,East,85,4.0,5.0,25,0.00,,,-99.99,,2013-06-10 02:42:00,
2013-06-09 20:52:00,79.0,38.0,29.97,East,88,4.0,6.0,23,0.00,,,-99.99,,2013-06-10 02:52:00,
2013-06-09 21:02:00,79.0,34.0,29.97,South,182,3.0,6.0,20,0.00,,,-99.99,,2013-06-10 03:02:00,
2013-06-09 21:12:00,79.0,36.0,29.97,SSE,167,4.0,5.0,22,0.00,,,-99.99,,2013-06-10 03:12:00,
2013-06-09 21:22:00,78.0,36.0,29.98,SSE,165,4.0,8.0,22,0.00,,,-99.99,,2013-06-10 03:22:00,
2013-06-09 21:33:00,78.0,36.0,29.98,SW,225,5.0,6.0,22,0.00,,,-99.99,,2013-06-10 03:33:00,
2013-06-09 21:43:00,75.0,40.0,29.98,SW,220,9.0,9.0,28,0.00,,,-99.99,,2013-06-10 03:43:00,
2013-06-09 21:53:00,77.0,37.0,29.99,SSW,213,7.0,11.0,24,0.00,,,-99.99,,2013-06-10 03:53:00,
2013-06-09 22:03:00,77.0,36.0,29.99,SSW,211,8.0,9.0,22,0.00,,,-99.99,,2013-06-10 04:03:00,
2013-06-09 22:12:00,76.0,38.0,29.99,SSW,201,4.0,9.0,26,0.00,,,-99.99,,2013-06-10 04:12:00,
2013-06-09 22:23:00,74.0,40.0,29.99,South,190,3.0,7.0,29,0.00,,,-99.99,,2013-06-10 04:23:00,
2013-06-09 22:33:00,73.0,41.0,30.00,SSE,163,5.0,6.0,31,0.00,,,-99.99,,2013-06-10 04:33:00,
2013-06-09 22:42:00,73.0,38.0,30.00,South,180,3.0,6.0,29,0.00,,,-99.99,,2013-06-10 04:42:00,
2013-06-09 22:52:00,73.0,40.0,30.00,South,187,6.0,8.0,30,0.00,,,-99.99,,2013-06-10 04:52:00,
2013-06-09 23:02:00,72.0,40.0,29.99,South,176,6.0,9.0,31,0.00,,,-99.99,,2013-06-10 05:02:00,
2013-06-09 23:12:00,73.0,38.0,29.99,SSW,198,7.0,12.0,28,0.00,,,-99.99,,2013-06-10 05:12:00,
2013-06-09 23:22:00,72.0,39.0,29.99,SSW,201,5.0,11.0,31,0.00,,,-99.99,,2013-06-10 05:22:00,
2013-06-09 23:32:00,71.0,39.0,29.99,South,180,5.0,9.0,31,0.00,,,-99.99,,2013-06-10 05:32:00,
2013-06-09 23:42:00,71.0,39.0,29.99,SSW,193,4.0,12.0,31,0.00,,,-99.99,,2013-06-10 05:42:00,
2013-06-09 23:52:00,70.0,39.0,29.99,SSW,194,2.0,10.0,33,0.00,,,-99.99,,2013-06-10 05:52:00,